KRHP

Details ICAO KRHP
Name ANDREWS MURPHY
Region United States
Timezone America/New_York (UTC-4.0)
Plans Departing 5
Arriving 3
Stats Elevation 1,697 ft / 517 m (AMSL)
Location 35.195230° -83.863038°
Runways 1
Magnetic Variation 5.740° W
Sunrise 2018-05-20 10:29:22 UTC / 2018-05-20 06:29:22 Local
Sunset 2018-05-21 00:37:27 UTC / 2018-05-20 20:37:27 Local
Advertisement - Login to hide

Runways

ID Width Length Bearing (true) Bearing (mag) Surface Threshold Offset Overrun Length
08 75 ft / 23 m 5,493 ft / 1,674 m 71.21° 76.95° Asphalt 0 ft / 0 m 0 ft / 0 m
26 75 ft / 23 m 5,493 ft / 1,674 m 251.22° 256.96° Asphalt 0 ft / 0 m 0 ft / 0 m

Map

Weather


0- 5 10 15 20 25 30 35+ Temperature / ° C

Clouds and Precipitation
Forecast for 2018-05-20 18:00 UTC. Updated 3 hours ago

Ground ~20,000 ft ~40,000 ft Winds

METAR

KRHP 201935Z AUTO 26006KT 10SM CLR 23/21 A3017 RMK AO2 T02250209

TAF

Not found

Frequencies

Recorded 119.67 MHz AWOS 3
Unicom 122.80 MHz CTAF/UNICOM
Warning: Do not use this data for real-world aviation or navigation. No guarantee of current accuracy is given.